Timeline UpdatesTrip UpdatesNews PostsPvt Posts♥♥Travel TipsAdmin PostsConv PostsFollowed PostsChat RequestsBlog PostsPNR Posts

Disclaimer
Search
 
 
Tue Oct 21, 2014 09:16:31 ISTHomeTrainsΣChainsAtlasPNRForumGalleryNewsFAQTripsMembersLoginFeedback
No Recent News for this Train
Other Trains in the News **new
Latest...
.
Thu Jul 24, 2014 (11:10PM)
⇐ Return Journey: Train# 19019

19020/Dehradun - Mumbai Bandra Terminus Express

Time-Table HAS CHANGED.
Sep 03 2014 (11:17AM)
Change Departure Station:
Change Arrival Station:
Post a Train Travel TipPost a Train Travel Tip **new
Post a Comment/Question/Picture/VideoPost a Comment/Question/Picture/Video
Pantry/Catering
✕ NO Pantry Car
✓ Catering Avbl
Loco/Rake Reversals
SRE/Saharanpur Junction (6); LRJ/Laksar Junction (4);
RSA - Rake Sharing
Rake/Coach Composition
LOCO-SLR-HCPV-GEN-GEN-AB1-S1-S2-S3-S4-S5-S6-S7-S8-S9-SLR
Loco
GZB WAP-7 NZM-BDTS. ddn to nzm tkd wdp 3a. By Er...
Read more...
Ankit Shotra Bhagat Entry# 595554
News    PNR    Forum    Time-Table    Availability    Fare Chart    Map    Arr/Dep History    Trips    Gallery    ΣChains    X/O    Timeline    
Travel Time: 38h 42m    82 halts    Distance: 1612 km    Avg Speed: 41 km/hr
Type: Mail/Express
Zone: WR/Western
Departs @ 12:45 (Avg 13m late)
Platform# 3
SMTWTFS
Haridwar Junction/HW 
Arrives @ 03:27 +2 nights (Avg 3m late)
Platform# 5
SMTWTFS
Mumbai Borivali/BVI 

82 halts. 250 intermediate Stations between Haridwar Junction and Mumbai Borivali

Show ALL intermediate Stations  Show Old Time-Table

#TrkCodeStation NameX/OArrivesAvgDepartsAvgHaltPFDay#KmSpeedElevZoneAddress
1%--%DDNDehradun (4)  -10:35 10:30+021-51.738648mNRDehradun, Uttarakhand
2%--%DWODoiwala  11:04 11:01+311:06 11:03+32m--1-31.841484mNRDehradun, Uttarakhand
3%--%RWLRaiwala Junction (2)X  11:38 11:33+711:40 11:35+172m21-11.117361mNRRishikesh, Uttarakhand
4%--%MOTCMotichur (2)  12:00 11:58+812:02 12:00+142m11-4.518312mNRHaridwar, Uttarakhand
5|--|HWHaridwar Junction (9)»X  12:15+1112:45+1330m310.048294mNRHaridwar, Uttarakhand
6%--%JWPJwalapurX  12:53 12:50+1612:55 12:52+192m--14.020292mNRHaridwar, Uttarakhand
7%--%LRJLaksar Junction (4)XO14:00+1914:25+1625m--126.953238mNRLaksar, Uttarakhand
8/==/RKRoorkee (3)X  14:43 14:45+1714:45 14:50+162 5m3144.746264mNRRoorkee - 247667, Uttarakhand
9/==/SRESaharanpur Junction (6)X15:35+1416:05+430m4179.448276mNRSaharanpur, Uttar Pradesh
10%--%DBDDeoband (2)  16:50 16:48+1416:52 16:50+172m21113.644258mNRSaharanpur, Uttar Pradesh
11%--%MOZMuzaffarnagar (3)X  17:20 17:23+1317:22 17:25+262m21137.763247mNRMuzaffarNagar, Uttar Pradesh
12%--%KATKhatauli (2)  17:42 17:46+2917:44 17:48+292m11159.876239mNRKhatauli, Uttar Pradesh
13%--%MUTMeerut Cantt. (2)  18:08 18:11+3418:10 18:13+352m11188.912230mNRMeerut, Uttar Pradesh
14%--%MTCMeerut City Junction (6)X18:35+2219:20+1045m41193.273229mNRMeerut, Uttar Pradesh
15%==%MDNRModinagar (2)X  19:34 19:36+1619:36 19:38+162m21212.755221mNRGhaziabad, Uttar Pradesh
16%==%MUDMuradnagar (2)X  19:45 19:49+1619:47 19:51+152m21222.859220mNRGhaziabad, Uttar Pradesh
17%==%GZNNew Ghaziabad (2)XO  20:02 20:03+820:04 20:05+82m21234.614213mNRGhaziabad, Uttar Pradesh
18%==%GZBGhaziabad Junction (6)XO  20:30 20:31+520:32 20:33+82m41240.534217mNRGhaziabad, Uttar Pradesh
19/==/SBBSahibabad Junction (5)X  20:41 20:45+1320:43 20:46+142 1m--1247.233209mNRGhaziabad, Uttar Pradesh
20/==/NZMDelhi Hazrat Nizamuddin (7)O21:15+1421:55+1340m11263.225209mNRNew Delhi 110013, Delhi NCT
21/==/TKDTuglakabad (2)XO  22:18+1122:20+152m11272.944213mNRNear Tughlakabad Metro Station, Delhi NCT
22/==/FDBFaridabad (4)O  22:44 22:35+1122:46 22:36+142 1m31284.035206mNRold Faridabad, Haryana
23/==/BVHBallabgarh (5)XO  22:58 22:50+1123:00 22:52+122m--1292.129203mNRFaridabad, Haryana
24/==/PWLPalwal (8)X  23:36+123:38+32m--1313.285200mNRPalwal, Haryana
25/==/KSVKosi Kalan (3)O  00:08+1700:10+182m22355.729189mNCRKosi Kalan, Uttar Pradesh
26/==/MTJMathura Junction (10)XO  01:35+001:45 01:40+410 5m32397.261179mNCRMathura, Uttar Pradesh
27/==/BTEBharatpur Junction (5)  02:10 02:13+302:15+65 2m--2430.784174mWCRBharatpur, Rajasthan
28/==/BXNBayana Junction (3)X  02:45+602:47+82m--2472.770198mWCRBayana, Rajasthan
29/==/HANHindaun City (2)  03:15+1203:17+142m--2505.656230mWCRKarauli, Rajasthan
30/==/SMBJShri Mahabirji (3)O  03:26 03:28+1403:28 03:30+142m--2515.841240mWCRKarauli, Rajasthan
31/==/GGCGangapur City (3)  04:10 04:20+204:20 04:25+710 5m--2549.863270mWCRGangapur, Rajasthan
32/==/MLZMalarnaX  04:50 04:57+904:52 04:59+92m--2583.686236mWCRSawai Madhopur, Rajasthan
33/==/SWMSawai Madhopur Junction (4)X  05:20+1305:25+135m--2613.878266mWCRSawai Madhopur, Rajasthan
34/==/IDGIndargarh Sumerganj Mandi (2)X  05:48 05:53+1405:50 05:55+172m--2650.066247mWCRIndargarh, Rajasthan
35/==/LKELakheri (3)  05:58 06:05+1806:00 06:07+182m--2661.069228mWCRBundi, Rajasthan
36/==/KPTNKeshorai PatanXO  06:38 06:48+1906:40 06:50+212m--2708.153243mWCRSH 33, Rajasthan
37/==/GQLGurlaO  06:48 06:59+2406:50 07:00+252 1m--2716.011251mWCRSH 33, Rajasthan
38|--|KOTAKota Junction (5)X07:30+1007:50+1520m22721.433256mWCRKota, Rajasthan
39/==/DKNTDakaniya Talav (2)  08:01 08:07+1408:03 08:08+172 1m22730.879278mWCRKota, Rajasthan
40/==/DARADara  08:30 08:37+1808:32 08:39+192m--2768.963354mWCRDara, Rajasthan
41/==/MKXMorak (2)X  08:48 08:53+1908:50 08:55+192m--2783.642337mWCRMorak, Rajasthan
42/==/RMARamganj Mandi Junction (3)  09:03 09:08+1609:05 09:10+212m--2792.757358mWCRRamganj Mandi, Rajasthan
43/==/JHWJhalawar Road (3)  09:18 09:23+1909:20 09:25+202m--2805.155361mWCRJhalawar City, Rajasthan
44/==/BWMBhawani Mandi (3)  09:38 09:43+1809:40 09:45+242m--2821.576384mWCRBhawani Mandi, Madhya Pradesh
45/==/GOHGaroth (2)X  09:58 10:03+2410:00 10:05+242m12844.228441mWCRMadhya Pradesh 458880, Madhya Pradesh
46/==/SGZShamgarh (3)X  10:25 10:28+1310:30+205 2m--2855.067463mWCRMandsaur, Madhya Pradesh
47/==/SVASuwasra (2)  10:42+2210:44+232m--2868.566450mWCRSuwasra, Madhya Pradesh
48/==/CMUChau Mahla (3)  10:58+2311:00+252m12883.835426mWCRJhalawar, Rajasthan
49/==/THURThuriaX  11:24+1411:26+162m--2898.021430mWCRMDR 45, Madhya Pradesh
50/==/VMAVikramgarh Alot (2)X  11:48+611:50+122m12905.761443mWCRKota Division, Madhya Pradesh
51/==/LNRLuni Richha  12:03+1212:05+142m--2918.928471mWCRAlote, Madhya Pradesh
52/==/MEPMahidpur Road  12:28+412:30+72m--2929.529493mWCRGogapur, Madhya Pradesh
53/==/NADNagda Junction (4)  13:05+513:15+710m--2946.664468mWRNagda, Madhya Pradesh
54/==/KUHKhachrod (2)  13:26 13:28+1013:28 13:30+112m--2960.457497mWRUjjain, Madhya Pradesh
55/==/RNHRunkheraX  13:39 13:41+1013:41 13:42+102 1m--2970.955478mWRUjjain, Madhya Pradesh
56/==/BODBangrodX  13:48 13:50+1113:50 13:51+112 1m--2978.225484mWRRatlam, Madhya Pradesh
57/==/RTMRatlam Junction (7)X  14:15+614:35+820m42988.070495mWRRatlam, Madhya Pradesh
58/==/RTIRaoti (2)  14:56 14:58+1214:58 14:59+122 1m--21015.065409mWRState Highway 39A, Madhya Pradesh
59/==/BOGBhairongarh (2)  15:08 15:10+1215:10 15:11+122 1m--21026.845374mWRBhairongarh Railway Station, Madhya Pradesh
60/==/BMIBamnia (2)  15:17 15:19+1415:19 15:21+132m--21032.842392mWRBamnia, Madhya Pradesh
61/==/AGRAmargarh (2)  15:25 15:27+1315:27 15:28+132 1m--21037.052410mWRSH 39A, Madhya Pradesh
62/==/PCNPanch Pipila (2)  15:37 15:39+1315:39 15:40+122 1m--21046.476369mWRSH 39A, Madhya Pradesh
63/==/THDRThandla Road (2)X  15:49 15:51+1515:51 15:53+142m--21060.460317mWRJhabua, Madhya Pradesh
64/==/MGNMeghnagar (3)  15:59 16:01+1516:01 16:03+152m--21068.373317mWRJhabua, Madhya Pradesh
65/==/ANASAnas (2)  16:13 16:15+1616:15 16:16+162 1m--21082.968288mWRMadhya Pradesh 389154 ?, Madhya Pradesh
66/==/BIOBordi (2)  16:21 16:23+1716:23 16:24+162 1m--21090.958289mWRNational Highway 59, Gujarat
67/==/DHDDahod (3)X  16:35+2116:40 16:37+245 2m--21101.564313mWRDahod, Gujarat
68/==/LMKLimkheda  17:06 17:08+2717:08 17:09+282 1m--21134.460205mWRLimkheda, Gujarat
69/==/PPDPiplod Junction  17:15 17:17+2817:17 17:19+272m--21142.379209mWRPiplod, Gujarat
70/==/SATSant Road (2)X  17:26 17:28+2817:28 17:30+262m221154.220169mWROrwara, Gujarat
71/==/GDAGodhra Junction (3)X  18:30+318:35+65m1021174.654122mWRGodhra, Gujarat
72/==/KRSAKharsaliya (2)  18:45 18:47+918:47 18:48+92 1m--21185.476107mWRPanchmahal, Gujarat
73/==/DRLDerolX  18:56 18:58+1018:58 19:00+102m121198.16881mWRKalol, Gujarat
74/==/CPNChampaner Road JunctionXO  19:09 19:11+919:11 19:13+92m--21210.67578mWRPanchmahal, Gujarat
75/==/SMLASamlaya Junction (3)X  19:20 19:22+919:22 19:24+92m--21221.85267mWRVadodara, Gujarat
76/==/BRCVadodara Junction (7)  19:55+2220:05+2110m321248.58136mWRVadodara 390005, Gujarat
77/==/MYGMiyagam Karjan (2)  20:25 20:27+2820:27 20:28+282 1m--21278.37029mWRKarjan, Gujarat
78/==/BHBharuch Junction (5)X  21:01 21:03+1921:03 21:05+192m421319.06219mWRBharuch, Gujarat
79/==/AKVAnkleshwar Junction (4)X  21:12 21:14+1821:14 21:16+182m221328.39319mWRAnkleshwar, Gujarat
80/==/KSBKosamba Junction (3)X21:29 21:28+2721:31 21:30+262m--21346.83130mWRKosamba, Gujarat
81/==/STSurat (4)X  22:30+822:38+88m221378.27419mWRSurat 395001, Gujarat
82/==/NVSNavsari (3)  23:03 23:02+1523:05+142 3m--21407.97914mWRNavsari, Gujarat
83/==/BIMBilimora Junction (4)X  23:21+2023:23+202m--21429.03611mWRBilimora, Gujarat
84/==/BLValsad (3)  23:53+1523:55+222m321447.03815mWRValsad, Gujarat
85/==/VAPIVapi (3)X  00:36+900:38+112m--31473.26827mWRVapi, Gujarat
86/==/PLGPalghar (3)X  02:04 01:50+1902:06 02:02+172 12m--31554.73519mWRPalghar, Maharashtra
87/==/VRVirar (8)  02:56+202:58+42m--31585.8536mWRDist. Palghar, Maharashtra
88/==/BVIMumbai Borivali (8)•  03:30 03:27+303:32+32 5m531611.72319mWRMumbai - 400092, Maharashtra
89/==/BDTSMumbai Bandra Terminus (5)  04:20-3-131630.4-4mWRMumbai 400050, Maharashtra
Scroll to Top
Scroll to Bottom